Corbin Foss — WDB5265 — position and weather

sailwx.info

Track history (hours):
 
Tides and Currents Weather Stations Pressure Air Temp Water Temp Dewpoint Dewpoint Depression Visibility Wind Speed Wind Dir Waves Ship Positions

Corbin Foss

Owner: Foss International, Inc, Seattle, WA. More information available from US FCC via Universal Licensing System and Coast Guard Vessel Documentation Center.

Last reported at 2018-Mar-21 00:16 UTC. Time now 2018-Jun-25 15:48 UTC.
Position N 29°44' W 093°20'.
Warning: this ship's position is months out of date.

Type: Towing. MMSI: 366902220.

Date/timePositionNaut miles runAvg speedWind from/ knotsBaromVisibWave heightAir tempDewpointWater temp
2018-Mar-21 00:16N 29°44' W 093°20'3 9.9
2018-Mar-21 00:00N 29°46' W 093°21'4 9.0
2018-Mar-20 23:30N 29°51' W 093°21'4 8.8
2018-Mar-20 23:00N 29°55' W 093°20'4 7.8
2018-Mar-20 22:30N 29°59' W 093°20'3 6.7
2018-Mar-20 22:00N 30°02' W 093°20'3 6.7
2018-Mar-20 21:30N 30°06' W 093°20'3 6.8
2018-Mar-20 21:00N 30°09' W 093°20'2 4.0
2018-Mar-20 20:30N 30°11' W 093°19'2 3.8
2018-Mar-20 20:00N 30°12' W 093°17'2 2.5
2018-Mar-20 19:23N 30°13' W 093°15'0 0.0
2018-Mar-20 18:56N 30°13' W 093°15'0 0.0
2018-Mar-20 18:26N 30°13' W 093°15'0 0.0
2018-Mar-20 17:56N 30°13' W 093°15'0 0.0
2018-Mar-20 17:20N 30°13' W 093°15'0 0.0
2018-Mar-20 16:56N 30°13' W 093°15'0 0.0
2018-Mar-20 16:27N 30°13' W 093°15'0 0.0
2018-Mar-20 15:56N 30°13' W 093°15'0 0.0
2018-Mar-20 15:27N 30°13' W 093°15'0 0.0
2018-Mar-20 14:50N 30°13' W 093°15'0 0.0
2018-Mar-20 14:26N 30°13' W 093°15'0 0.0
2018-Mar-20 13:56N 30°13' W 093°15'0 0.0
2018-Mar-20 13:27N 30°13' W 093°15'0 0.0
2018-Mar-20 12:59N 30°13' W 093°15'0 0.0
2018-Mar-20 12:26N 30°13' W 093°15'0 0.0
2018-Mar-20 11:59N 30°13' W 093°15'0 0.0
2018-Mar-20 11:29N 30°13' W 093°15'0 0.0
2018-Mar-20 10:59N 30°13' W 093°15'0 0.0
2018-Mar-20 10:30N 30°13' W 093°15'0 0.0
2018-Mar-20 10:00N 30°13' W 093°15'0 0.0
2018-Mar-20 09:29N 30°13' W 093°15'0 0.0
2018-Mar-20 08:59N 30°13' W 093°15'0 0.0
2018-Mar-20 08:26N 30°13' W 093°15'0 0.0
2018-Mar-20 07:59N 30°13' W 093°15'0 0.0
2018-Mar-20 07:27N 30°13' W 093°15'0 0.0
2018-Mar-20 06:59N 30°13' W 093°15'0 0.0
2018-Mar-20 06:29N 30°13' W 093°15'0 0.0
2018-Mar-20 05:56N 30°13' W 093°15'0 0.0
2018-Mar-20 05:30N 30°13' W 093°15'0 0.0
2018-Mar-20 04:59N 30°13' W 093°15'0 0.0
2018-Mar-20 04:26N 30°13' W 093°15'0 0.0
2018-Mar-20 03:56N 30°13' W 093°15'0 0.0
2018-Mar-20 03:26N 30°13' W 093°15'0 0.0
2018-Mar-20 02:56N 30°13' W 093°15'0 0.0
2018-Mar-20 02:29N 30°13' W 093°15'0 0.0
2018-Mar-20 01:59N 30°13' W 093°15'0 0.0
2018-Mar-20 01:26N 30°13' W 093°15'0 0.0
2018-Mar-20 00:57N 30°13' W 093°15'0 0.0
2018-Mar-20 00:08N 30°13' W 093°15'0 0.0
2018-Mar-19 23:56N 30°13' W 093°15'0 0.0
2018-Mar-19 23:26N 30°13' W 093°15'0 0.0
2018-Mar-19 22:56N 30°13' W 093°15'0 0.0
2018-Mar-19 22:29N 30°13' W 093°15'0 0.0
2018-Mar-19 21:59N 30°13' W 093°15'0 0.0
2018-Mar-19 21:26N 30°13' W 093°15'0 0.0
2018-Mar-19 20:56N 30°13' W 093°15'0 0.0
2018-Mar-19 20:26N 30°13' W 093°15'0 0.0
2018-Mar-19 19:59N 30°13' W 093°15'0 0.0
2018-Mar-19 19:26N 30°13' W 093°15'0 0.0
2018-Mar-19 18:56N 30°13' W 093°15'0 0.0
2018-Mar-19 18:26N 30°13' W 093°15'0 0.0
2018-Mar-19 17:59N 30°13' W 093°15'0 0.0
2018-Mar-19 17:29N 30°13' W 093°15'0 0.0
2018-Mar-19 16:59N 30°13' W 093°15'0 0.0
2018-Mar-19 16:29N 30°13' W 093°15'0 0.0
2018-Mar-19 15:59N 30°13' W 093°15'0 0.0
2018-Mar-19 15:29N 30°13' W 093°15'0 0.0
2018-Mar-19 14:59N 30°13' W 093°15'0 0.0
2018-Mar-19 14:23N 30°13' W 093°15'0 0.0
2018-Mar-19 13:59N 30°13' W 093°15'0 0.0
2018-Mar-19 13:29N 30°13' W 093°15'0 0.0
2018-Mar-19 12:56N 30°13' W 093°15'0 0.0
2018-Mar-19 12:26N 30°13' W 093°15'0 0.0
2018-Mar-19 11:56N 30°13' W 093°15'0 0.0
2018-Mar-19 11:26N 30°13' W 093°15'0 0.0
2018-Mar-19 10:56N 30°13' W 093°15'0 0.0
2018-Mar-19 10:26N 30°13' W 093°15'0 0.0
2018-Mar-19 09:50N 30°13' W 093°15'0 0.0
2018-Mar-19 09:26N 30°13' W 093°15'0 0.0
2018-Mar-19 08:59N 30°13' W 093°15'0 0.0
2018-Mar-19 08:26N 30°13' W 093°15'0 0.0
2018-Mar-19 07:56N 30°13' W 093°15'0 0.0
2018-Mar-19 07:29N 30°13' W 093°15'0 0.0
2018-Mar-19 06:56N 30°13' W 093°15'0 0.0
2018-Mar-19 06:26N 30°13' W 093°15'0 0.0
2018-Mar-19 05:56N 30°13' W 093°15'0 0.0
2018-Mar-19 05:26N 30°13' W 093°15'0 0.0
2018-Mar-19 04:59N 30°13' W 093°15'0 0.0
2018-Mar-19 04:29N 30°13' W 093°15'0 0.0
2018-Mar-19 03:56N 30°13' W 093°15'0 0.0
2018-Mar-19 03:26N 30°13' W 093°15'0 0.0
2018-Mar-19 02:56N 30°13' W 093°15'0 0.0
2018-Mar-19 02:26N 30°13' W 093°15'0 0.0
2018-Mar-19 01:56N 30°13' W 093°15'0 0.0
2018-Mar-19 01:26N 30°13' W 093°15'0 0.0
2018-Mar-19 00:56N 30°13' W 093°15'0 0.0
2018-Mar-19 00:26N 30°13' W 093°15'0 0.0
2018-Mar-18 23:56N 30°13' W 093°15'0 0.0
2018-Mar-18 23:26N 30°13' W 093°15'0 0.0
2018-Mar-18 22:44N 30°13' W 093°15'0 0.0
2018-Mar-18 22:26N 30°13' W 093°15'0 0.0
2018-Mar-18 21:56N 30°13' W 093°15'0 0.0
2018-Mar-18 21:26N 30°13' W 093°15'0 0.0
2018-Mar-18 20:56N 30°13' W 093°15'0 0.0
2018-Mar-18 20:30N 30°13' W 093°15'0 0.1
2018-Mar-18 20:00N 30°13' W 093°15'0 0.0
2018-Mar-18 19:30N 30°13' W 093°15'0 0.5
2018-Mar-18 19:00N 30°13' W 093°16'2 3.9
2018-Mar-18 18:30N 30°12' W 093°18'2 3.5
2018-Mar-18 18:00N 30°10' W 093°19'3 5.0
2018-Mar-18 17:30N 30°08' W 093°20'3 5.4
2018-Mar-18 17:00N 30°05' W 093°20'2 4.7
2018-Mar-18 16:30N 30°03' W 093°20'3 5.1
2018-Mar-18 16:00N 30°00' W 093°20'3 6.0
2018-Mar-18 15:30N 29°57' W 093°20'3 6.4
2018-Mar-18 15:00N 29°54' W 093°21'4 7.9
2018-Mar-18 14:30N 29°50' W 093°21'4 6.6
2018-Mar-18 13:53N 29°46' W 093°21'8 4.3
2018-Mar-18 11:54N 29°38' W 093°23'49 6.4
2018-Mar-18 04:17N 29°07' W 092°39'4 8.2
2018-Mar-18 03:47N 29°04' W 092°36'  
Track history (hours):
 
Tides and Currents Weather Stations Pressure Air Temp Water Temp Dewpoint Dewpoint Depression Visibility Wind Speed Wind Dir Waves Ship Positions

Corbin Foss

Owner: Foss International, Inc, Seattle, WA. More information available from US FCC via Universal Licensing System and Coast Guard Vessel Documentation Center.

Last reported at 2018-Mar-21 00:16 UTC. Time now 2018-Jun-25 15:48 UTC.
Position N 29°44' W 093°20'.
Warning: this ship's position is months out of date.

Type: Towing. MMSI: 366902220.

Date/timePositionNaut miles runAvg speedWind from/ knotsBaromVisibWave heightAir tempDewpointWater temp
2018-Mar-21 00:16N 29°44' W 093°20'3 9.9
2018-Mar-21 00:00N 29°46' W 093°21'4 9.0
2018-Mar-20 23:30N 29°51' W 093°21'4 8.8
2018-Mar-20 23:00N 29°55' W 093°20'4 7.8
2018-Mar-20 22:30N 29°59' W 093°20'3 6.7
2018-Mar-20 22:00N 30°02' W 093°20'3 6.7
2018-Mar-20 21:30N 30°06' W 093°20'3 6.8
2018-Mar-20 21:00N 30°09' W 093°20'2 4.0
2018-Mar-20 20:30N 30°11' W 093°19'2 3.8
2018-Mar-20 20:00N 30°12' W 093°17'2 2.5
2018-Mar-20 19:23N 30°13' W 093°15'0 0.0
2018-Mar-20 18:56N 30°13' W 093°15'0 0.0
2018-Mar-20 18:26N 30°13' W 093°15'0 0.0
2018-Mar-20 17:56N 30°13' W 093°15'0 0.0
2018-Mar-20 17:20N 30°13' W 093°15'0 0.0
2018-Mar-20 16:56N 30°13' W 093°15'0 0.0
2018-Mar-20 16:27N 30°13' W 093°15'0 0.0
2018-Mar-20 15:56N 30°13' W 093°15'0 0.0
2018-Mar-20 15:27N 30°13' W 093°15'0 0.0
2018-Mar-20 14:50N 30°13' W 093°15'0 0.0
2018-Mar-20 14:26N 30°13' W 093°15'0 0.0
2018-Mar-20 13:56N 30°13' W 093°15'0 0.0
2018-Mar-20 13:27N 30°13' W 093°15'0 0.0
2018-Mar-20 12:59N 30°13' W 093°15'0 0.0
2018-Mar-20 12:26N 30°13' W 093°15'0 0.0
2018-Mar-20 11:59N 30°13' W 093°15'0 0.0
2018-Mar-20 11:29N 30°13' W 093°15'0 0.0
2018-Mar-20 10:59N 30°13' W 093°15'0 0.0
2018-Mar-20 10:30N 30°13' W 093°15'0 0.0
2018-Mar-20 10:00N 30°13' W 093°15'0 0.0
2018-Mar-20 09:29N 30°13' W 093°15'0 0.0
2018-Mar-20 08:59N 30°13' W 093°15'0 0.0
2018-Mar-20 08:26N 30°13' W 093°15'0 0.0
2018-Mar-20 07:59N 30°13' W 093°15'0 0.0
2018-Mar-20 07:27N 30°13' W 093°15'0 0.0
2018-Mar-20 06:59N 30°13' W 093°15'0 0.0
2018-Mar-20 06:29N 30°13' W 093°15'0 0.0
2018-Mar-20 05:56N 30°13' W 093°15'0 0.0
2018-Mar-20 05:30N 30°13' W 093°15'0 0.0
2018-Mar-20 04:59N 30°13' W 093°15'0 0.0
2018-Mar-20 04:26N 30°13' W 093°15'0 0.0
2018-Mar-20 03:56N 30°13' W 093°15'0 0.0
2018-Mar-20 03:26N 30°13' W 093°15'0 0.0
2018-Mar-20 02:56N 30°13' W 093°15'0 0.0
2018-Mar-20 02:29N 30°13' W 093°15'0 0.0
2018-Mar-20 01:59N 30°13' W 093°15'0 0.0
2018-Mar-20 01:26N 30°13' W 093°15'0 0.0
2018-Mar-20 00:57N 30°13' W 093°15'0 0.0
2018-Mar-20 00:08N 30°13' W 093°15'0 0.0
2018-Mar-19 23:56N 30°13' W 093°15'0 0.0
2018-Mar-19 23:26N 30°13' W 093°15'0 0.0
2018-Mar-19 22:56N 30°13' W 093°15'0 0.0
2018-Mar-19 22:29N 30°13' W 093°15'0 0.0
2018-Mar-19 21:59N 30°13' W 093°15'0 0.0
2018-Mar-19 21:26N 30°13' W 093°15'0 0.0
2018-Mar-19 20:56N 30°13' W 093°15'0 0.0
2018-Mar-19 20:26N 30°13' W 093°15'0 0.0
2018-Mar-19 19:59N 30°13' W 093°15'0 0.0
2018-Mar-19 19:26N 30°13' W 093°15'0 0.0
2018-Mar-19 18:56N 30°13' W 093°15'0 0.0
2018-Mar-19 18:26N 30°13' W 093°15'0 0.0
2018-Mar-19 17:59N 30°13' W 093°15'0 0.0
2018-Mar-19 17:29N 30°13' W 093°15'0 0.0
2018-Mar-19 16:59N 30°13' W 093°15'0 0.0
2018-Mar-19 16:29N 30°13' W 093°15'0 0.0
2018-Mar-19 15:59N 30°13' W 093°15'0 0.0
2018-Mar-19 15:29N 30°13' W 093°15'0 0.0
2018-Mar-19 14:59N 30°13' W 093°15'0 0.0
2018-Mar-19 14:23N 30°13' W 093°15'0 0.0
2018-Mar-19 13:59N 30°13' W 093°15'0 0.0
2018-Mar-19 13:29N 30°13' W 093°15'0 0.0
2018-Mar-19 12:56N 30°13' W 093°15'0 0.0
2018-Mar-19 12:26N 30°13' W 093°15'0 0.0
2018-Mar-19 11:56N 30°13' W 093°15'0 0.0
2018-Mar-19 11:26N 30°13' W 093°15'0 0.0
2018-Mar-19 10:56N 30°13' W 093°15'0 0.0
2018-Mar-19 10:26N 30°13' W 093°15'0 0.0
2018-Mar-19 09:50N 30°13' W 093°15'0 0.0
2018-Mar-19 09:26N 30°13' W 093°15'0 0.0
2018-Mar-19 08:59N 30°13' W 093°15'0 0.0
2018-Mar-19 08:26N 30°13' W 093°15'0 0.0
2018-Mar-19 07:56N 30°13' W 093°15'0 0.0
2018-Mar-19 07:29N 30°13' W 093°15'0 0.0
2018-Mar-19 06:56N 30°13' W 093°15'0 0.0
2018-Mar-19 06:26N 30°13' W 093°15'0 0.0
2018-Mar-19 05:56N 30°13' W 093°15'0 0.0
2018-Mar-19 05:26N 30°13' W 093°15'0 0.0
2018-Mar-19 04:59N 30°13' W 093°15'0 0.0
2018-Mar-19 04:29N 30°13' W 093°15'0 0.0
2018-Mar-19 03:56N 30°13' W 093°15'0 0.0
2018-Mar-19 03:26N 30°13' W 093°15'0 0.0
2018-Mar-19 02:56N 30°13' W 093°15'0 0.0
2018-Mar-19 02:26N 30°13' W 093°15'0 0.0
2018-Mar-19 01:56N 30°13' W 093°15'0 0.0
2018-Mar-19 01:26N 30°13' W 093°15'0 0.0
2018-Mar-19 00:56N 30°13' W 093°15'0 0.0
2018-Mar-19 00:26N 30°13' W 093°15'0 0.0
2018-Mar-18 23:56N 30°13' W 093°15'0 0.0
2018-Mar-18 23:26N 30°13' W 093°15'0 0.0
2018-Mar-18 22:44N 30°13' W 093°15'0 0.0
2018-Mar-18 22:26N 30°13' W 093°15'0 0.0
2018-Mar-18 21:56N 30°13' W 093°15'0 0.0
2018-Mar-18 21:26N 30°13' W 093°15'0 0.0
2018-Mar-18 20:56N 30°13' W 093°15'0 0.0
2018-Mar-18 20:30N 30°13' W 093°15'0 0.1
2018-Mar-18 20:00N 30°13' W 093°15'0 0.0
2018-Mar-18 19:30N 30°13' W 093°15'0 0.5
2018-Mar-18 19:00N 30°13' W 093°16'2 3.9
2018-Mar-18 18:30N 30°12' W 093°18'2 3.5
2018-Mar-18 18:00N 30°10' W 093°19'3 5.0
2018-Mar-18 17:30N 30°08' W 093°20'3 5.4
2018-Mar-18 17:00N 30°05' W 093°20'2 4.7
2018-Mar-18 16:30N 30°03' W 093°20'3 5.1
2018-Mar-18 16:00N 30°00' W 093°20'3 6.0
2018-Mar-18 15:30N 29°57' W 093°20'3 6.4
2018-Mar-18 15:00N 29°54' W 093°21'4 7.9
2018-Mar-18 14:30N 29°50' W 093°21'4 6.6
2018-Mar-18 13:53N 29°46' W 093°21'8 4.3
2018-Mar-18 11:54N 29°38' W 093°23'49 6.4
2018-Mar-18 04:17N 29°07' W 092°39'4 8.2
2018-Mar-18 03:47N 29°04' W 092°36'  

Dump ship's entire track history